createdAt,value
2023-03-17T00:00:14.487Z,61.08
2023-03-17T00:01:14.465Z,61.29
2023-03-17T00:02:14.480Z,60.88
2023-03-17T00:03:14.444Z,60.77
2023-03-17T00:04:14.605Z,60.98
2023-03-17T00:05:14.412Z,60.77
2023-03-17T00:06:14.390Z,60.98
2023-03-17T00:07:14.382Z,60.88
2023-03-17T00:08:14.372Z,61.18
2023-03-17T00:09:14.531Z,60.88
2023-03-17T00:10:14.358Z,60.77
2023-03-17T00:11:14.331Z,61.08
2023-03-17T00:12:14.322Z,61.29
2023-03-17T00:13:14.314Z,60.88
2023-03-17T00:14:14.320Z,60.98
2023-03-17T00:15:14.282Z,60.98
2023-03-17T00:16:14.287Z,61.08
2023-03-17T00:17:14.450Z,60.98
2023-03-17T00:18:14.240Z,60.77
2023-03-17T00:19:14.410Z,61.18
2023-03-17T00:20:14.226Z,61.08
2023-03-17T00:21:14.208Z,60.77
2023-03-17T00:22:14.189Z,61.18
2023-03-17T00:23:14.179Z,61.08
2023-03-17T00:24:15.154Z,61.08
2023-03-17T00:25:14.149Z,61.08
2023-03-17T00:26:14.160Z,60.77
2023-03-17T00:27:14.138Z,60.88
2023-03-17T00:28:14.116Z,60.36
2023-03-17T00:29:14.275Z,60.26
2023-03-17T00:30:14.097Z,60.54
2023-03-17T00:31:14.139Z,60.13
2023-03-17T00:32:14.067Z,60.33
2023-03-17T00:33:14.058Z,59.92
2023-03-17T00:34:14.036Z,59.92
2023-03-17T00:35:14.016Z,59.92
2023-03-17T00:36:14.025Z,59.72
2023-03-17T00:37:13.989Z,59.62
2023-03-17T00:38:13.986Z,59.82
2023-03-17T00:39:47.212Z,59.92
2023-03-17T00:40:52.420Z,59.92
2023-03-17T00:41:52.432Z,59.92
2023-03-17T00:42:47.173Z,59.92
2023-03-17T00:43:47.161Z,59.92
2023-03-17T00:44:47.160Z,60.23
2023-03-17T00:45:47.122Z,60.03
2023-03-17T00:46:47.155Z,59.92
2023-03-17T00:47:47.102Z,59.92
2023-03-17T00:48:47.098Z,59.92
2023-03-17T00:49:47.069Z,59.72
2023-03-17T00:50:47.170Z,59.62
2023-03-17T00:51:47.041Z,59.52
2023-03-17T00:52:47.038Z,59.41
2023-03-17T00:53:47.045Z,59.41
2023-03-17T00:54:47.020Z,59.62
2023-03-17T00:55:47.004Z,59.82
2023-03-17T00:56:47.007Z,59.41
2023-03-17T00:57:46.979Z,59.31
2023-03-17T00:58:46.974Z,59.62
2023-03-17T00:59:47.128Z,59.31
2023-03-17T01:00:47.012Z,59.72
2023-03-17T01:01:46.964Z,59.62
2023-03-17T01:02:46.906Z,59.72
2023-03-17T01:03:46.905Z,59.92
2023-03-17T01:04:52.876Z,59.82
2023-03-17T01:05:47.869Z,59.52
2023-03-17T01:06:46.869Z,60.03
2023-03-17T01:07:46.836Z,60.13
2023-03-17T01:08:46.833Z,60.13
2023-03-17T01:09:47.020Z,60.03
2023-03-17T01:10:46.811Z,59.92
2023-03-17T01:11:46.793Z,60.03
2023-03-17T01:12:46.810Z,60.03
2023-03-17T01:13:46.796Z,59.72
2023-03-17T01:14:46.945Z,59.92
2023-03-17T01:15:46.915Z,60.03
2023-03-17T01:16:46.763Z,60.16
2023-03-17T01:17:46.713Z,60.26
2023-03-17T01:18:46.790Z,60.26
2023-03-17T01:19:46.681Z,60.16
2023-03-17T01:20:46.862Z,60.36
2023-03-17T01:21:46.677Z,60.16
2023-03-17T01:22:46.650Z,60.26
2023-03-17T01:23:46.630Z,59.95
2023-03-17T01:24:46.810Z,60.67
2023-03-17T01:25:46.611Z,60.16
2023-03-17T01:26:46.592Z,60.16
2023-03-17T01:27:46.590Z,60.47
2023-03-17T01:28:46.592Z,60.47
2023-03-17T01:29:46.741Z,59.75
2023-03-17T01:30:46.555Z,59.85
2023-03-17T01:31:46.583Z,60.77
2023-03-17T01:32:46.642Z,60.16
2023-03-17T01:33:46.691Z,60.26
2023-03-17T01:34:46.682Z,60.57
2023-03-17T01:35:46.577Z,60.16
2023-03-17T01:36:46.476Z,60.26
2023-03-17T01:37:46.461Z,60.36
2023-03-17T01:38:46.443Z,60.16
2023-03-17T01:39:46.630Z,60.05
2023-03-17T01:40:46.419Z,60.57
2023-03-17T01:41:46.410Z,60.36
2023-03-17T01:42:46.399Z,60.36
2023-03-17T01:43:46.388Z,60.16
2023-03-17T01:44:46.540Z,60.36
2023-03-17T01:45:46.391Z,60.47
2023-03-17T01:46:46.347Z,60.26
2023-03-17T01:47:46.327Z,60.36
2023-03-17T01:48:46.333Z,60.16
2023-03-17T01:49:46.310Z,59.85
2023-03-17T01:50:46.287Z,60.16
2023-03-17T01:51:46.302Z,59.75
2023-03-17T01:52:46.269Z,60.16
2023-03-17T01:53:46.446Z,60.26
2023-03-17T01:54:46.241Z,60.05
2023-03-17T01:55:46.228Z,59.75
2023-03-17T01:56:46.209Z,60.05
2023-03-17T01:57:46.206Z,59.85
2023-03-17T01:58:46.212Z,59.95
2023-03-17T01:59:46.359Z,59.75
2023-03-17T02:00:46.220Z,59.85
2023-03-17T02:01:46.188Z,59.95
2023-03-17T02:02:46.149Z,59.95
2023-03-17T02:03:46.179Z,59.75
2023-03-17T02:04:46.120Z,59.44
2023-03-17T02:05:46.107Z,59.95
2023-03-17T02:06:57.356Z,59.64
2023-03-17T02:07:47.072Z,59.34
2023-03-17T02:08:46.057Z,59.54
2023-03-17T02:09:46.045Z,59.23
2023-03-17T02:10:46.059Z,59.54
2023-03-17T02:11:46.201Z,59.44
2023-03-17T02:12:46.022Z,59.85
2023-03-17T02:13:46.000Z,59.54
2023-03-17T02:14:45.987Z,60.16
2023-03-17T02:15:45.976Z,59.85
2023-03-17T02:16:45.963Z,60.05
2023-03-17T02:17:46.122Z,60.16
2023-03-17T02:18:45.931Z,60.16
2023-03-17T02:19:45.924Z,60.05
2023-03-17T02:20:46.091Z,60.05
2023-03-17T02:21:45.889Z,60.36
2023-03-17T02:22:45.884Z,60.36
2023-03-17T02:23:45.888Z,60.36
2023-03-17T02:24:45.853Z,60.05
2023-03-17T02:25:46.025Z,60.67
2023-03-17T02:26:45.831Z,60.36
2023-03-17T02:27:45.812Z,60.26
2023-03-17T02:28:45.812Z,60.47
2023-03-17T02:29:45.969Z,60.47
2023-03-17T02:30:45.808Z,60.57
2023-03-17T02:31:45.767Z,60.60
2023-03-17T02:32:45.826Z,60.80
2023-03-17T02:33:45.740Z,60.49
2023-03-17T02:34:46.086Z,60.91
2023-03-17T02:35:45.730Z,60.80
2023-03-17T02:36:45.724Z,61.00
2023-03-17T02:37:45.690Z,60.60
2023-03-17T02:38:45.671Z,60.39
2023-03-17T02:39:45.857Z,60.19
2023-03-17T02:40:45.650Z,60.39
2023-03-17T02:41:45.640Z,60.05
2023-03-17T02:42:45.624Z,60.16
2023-03-17T02:43:45.610Z,59.85
2023-03-17T02:44:45.771Z,59.95
2023-03-17T02:45:45.655Z,60.16
2023-03-17T02:46:45.561Z,60.16
2023-03-17T02:47:45.569Z,59.75
2023-03-17T02:48:45.551Z,59.85
2023-03-17T02:49:45.541Z,59.85
2023-03-17T02:50:45.691Z,59.44
2023-03-17T02:51:45.522Z,59.54
2023-03-17T02:52:45.493Z,59.64
2023-03-17T02:53:45.490Z,59.23
2023-03-17T02:54:45.510Z,59.85
2023-03-17T02:55:45.471Z,59.75
2023-03-17T02:56:45.450Z,59.54
2023-03-17T02:57:45.429Z,59.34
2023-03-17T02:58:45.426Z,59.95
2023-03-17T02:59:45.408Z,59.75
2023-03-17T03:00:45.393Z,59.95
2023-03-17T03:01:45.411Z,59.85
2023-03-17T03:02:45.613Z,59.75
2023-03-17T03:03:45.539Z,59.85
2023-03-17T03:04:45.338Z,60.05
2023-03-17T03:05:45.339Z,59.64
2023-03-17T03:06:45.315Z,59.85
2023-03-17T03:07:45.322Z,59.64
2023-03-17T03:08:45.647Z,60.16
2023-03-17T03:09:45.278Z,59.85
2023-03-17T03:10:45.258Z,59.85
2023-03-17T03:11:45.247Z,60.36
2023-03-17T03:12:45.539Z,59.95
2023-03-17T03:13:45.229Z,59.44
2023-03-17T03:14:45.228Z,59.95
2023-03-17T03:15:45.249Z,59.95
2023-03-17T03:16:45.194Z,60.05
2023-03-17T03:17:45.176Z,60.05
2023-03-17T03:18:45.169Z,59.85
2023-03-17T03:19:45.176Z,59.85
2023-03-17T03:20:45.150Z,60.36
2023-03-17T03:21:45.156Z,59.95
2023-03-17T03:22:45.118Z,60.16
2023-03-17T03:23:45.099Z,60.26
2023-03-17T03:24:45.095Z,60.29
2023-03-17T03:25:45.075Z,60.05
2023-03-17T03:26:45.073Z,59.88
2023-03-17T03:27:45.055Z,59.95
2023-03-17T03:28:45.034Z,60.47
2023-03-17T03:29:45.202Z,60.08
2023-03-17T03:30:45.041Z,60.60
2023-03-17T03:31:45.014Z,60.19
2023-03-17T03:32:45.035Z,60.19
2023-03-17T03:33:44.975Z,59.75
2023-03-17T03:34:44.979Z,59.75
2023-03-17T03:35:45.007Z,60.05
2023-03-17T03:36:45.115Z,59.95
2023-03-17T03:37:44.925Z,60.16
2023-03-17T03:38:44.903Z,60.19
2023-03-17T03:39:44.898Z,59.95
2023-03-17T03:40:44.911Z,60.19
2023-03-17T03:41:44.912Z,59.54
2023-03-17T03:42:44.864Z,59.44
2023-03-17T03:43:44.840Z,59.75
2023-03-17T03:44:44.847Z,59.34
2023-03-17T03:45:44.822Z,59.54
2023-03-17T03:46:44.862Z,59.64
2023-03-17T03:47:44.961Z,59.54
2023-03-17T03:48:44.802Z,60.16
2023-03-17T03:49:44.763Z,60.49
2023-03-17T03:50:44.760Z,60.49
2023-03-17T03:51:44.737Z,60.29
2023-03-17T03:52:44.895Z,60.29
2023-03-17T03:53:44.707Z,59.98
2023-03-17T03:54:44.707Z,60.29
2023-03-17T03:55:44.692Z,60.08
2023-03-17T03:56:44.677Z,60.80
2023-03-17T03:57:44.829Z,60.39
2023-03-17T03:58:44.832Z,60.49
2023-03-17T03:59:44.624Z,60.60
2023-03-17T04:00:44.614Z,59.88
2023-03-17T04:01:44.613Z,60.29
2023-03-17T04:02:44.654Z,60.19
2023-03-17T04:03:44.762Z,59.77
2023-03-17T04:04:44.821Z,59.77
2023-03-17T04:05:44.558Z,59.98
2023-03-17T04:06:44.559Z,60.08
2023-03-17T04:07:44.530Z,59.98
2023-03-17T04:08:44.696Z,60.29
2023-03-17T04:09:44.679Z,59.98
2023-03-17T04:10:44.511Z,60.19
2023-03-17T04:11:44.484Z,59.88
2023-03-17T04:12:44.476Z,59.88
2023-03-17T04:13:44.452Z,59.77
2023-03-17T04:14:44.618Z,59.98
2023-03-17T04:15:44.420Z,59.77
2023-03-17T04:16:44.413Z,59.77
2023-03-17T04:17:44.423Z,59.77
2023-03-17T04:18:44.420Z,59.88
2023-03-17T04:19:44.395Z,59.88
2023-03-17T04:20:44.369Z,59.98
2023-03-17T04:21:44.350Z,59.88
2023-03-17T04:22:44.339Z,59.36
2023-03-17T04:23:44.329Z,59.57
2023-03-17T04:24:44.333Z,59.47
2023-03-17T04:25:44.469Z,59.67
2023-03-17T04:26:44.279Z,59.77
2023-03-17T04:27:44.278Z,59.98
2023-03-17T04:28:44.266Z,60.08
2023-03-17T04:29:44.240Z,59.98
2023-03-17T04:30:44.412Z,59.57
2023-03-17T04:31:44.256Z,59.36
2023-03-17T04:32:44.265Z,59.88
2023-03-17T04:33:44.196Z,59.77
2023-03-17T04:34:44.195Z,59.88
2023-03-17T04:35:44.413Z,59.88
2023-03-17T04:36:44.159Z,59.26
2023-03-17T04:37:44.147Z,59.57
2023-03-17T04:38:44.140Z,59.67
2023-03-17T04:39:44.299Z,59.36
2023-03-17T04:40:44.288Z,59.36
2023-03-17T04:41:44.089Z,59.26
2023-03-17T04:42:44.073Z,59.26
2023-03-17T04:43:44.062Z,59.47
2023-03-17T04:44:44.054Z,59.57
2023-03-17T04:45:44.072Z,59.57
2023-03-17T04:46:44.214Z,59.67
2023-03-17T04:47:44.006Z,59.77
2023-03-17T04:48:44.006Z,59.57
2023-03-17T04:49:43.980Z,59.36
2023-03-17T04:50:43.985Z,59.98
2023-03-17T04:51:43.979Z,59.26
2023-03-17T04:52:43.956Z,59.57
2023-03-17T04:53:43.936Z,59.47
2023-03-17T04:54:43.931Z,59.06
2023-03-17T04:55:44.084Z,59.26
2023-03-17T04:56:43.912Z,59.36
2023-03-17T04:57:43.883Z,59.47
2023-03-17T04:58:43.896Z,59.67
2023-03-17T04:59:43.852Z,59.57
2023-03-17T05:00:44.081Z,59.77
2023-03-17T05:01:43.853Z,59.67
2023-03-17T05:02:43.824Z,59.98
2023-03-17T05:03:43.814Z,59.88
2023-03-17T05:04:43.819Z,59.98
2023-03-17T05:05:43.773Z,60.19
2023-03-17T05:06:44.093Z,59.88
2023-03-17T05:07:43.773Z,59.98
2023-03-17T05:08:43.775Z,59.77
2023-03-17T05:09:43.751Z,60.39
2023-03-17T05:10:43.724Z,59.98
2023-03-17T05:11:43.882Z,59.98
2023-03-17T05:12:43.697Z,59.98
2023-03-17T05:13:43.680Z,59.77
2023-03-17T05:14:43.668Z,60.08
2023-03-17T05:15:43.650Z,59.98
2023-03-17T05:16:43.855Z,59.88
2023-03-17T05:17:43.619Z,59.88
2023-03-17T05:18:43.807Z,60.19
2023-03-17T05:19:43.595Z,60.31
2023-03-17T05:20:43.604Z,59.77
2023-03-17T05:21:43.782Z,60.29
2023-03-17T05:22:43.570Z,59.98
2023-03-17T05:23:43.542Z,60.19
2023-03-17T05:24:43.870Z,60.52
2023-03-17T05:25:43.528Z,60.63
2023-03-17T05:26:43.513Z,60.31
2023-03-17T05:27:43.509Z,61.04
2023-03-17T05:28:43.496Z,60.73
2023-03-17T05:29:43.476Z,60.63
2023-03-17T05:30:43.503Z,60.52
2023-03-17T05:31:43.464Z,60.73
2023-03-17T05:32:43.473Z,60.73
2023-03-17T05:33:43.422Z,60.42
2023-03-17T05:34:43.587Z,60.52
2023-03-17T05:35:43.397Z,60.63
2023-03-17T05:36:43.380Z,60.63
2023-03-17T05:37:43.366Z,60.31
2023-03-17T05:38:43.354Z,60.83
2023-03-17T05:39:43.529Z,60.93
2023-03-17T05:40:43.364Z,60.93
2023-03-17T05:41:43.327Z,60.73
2023-03-17T05:42:43.294Z,60.42
2023-03-17T05:43:43.302Z,60.93
2023-03-17T05:44:43.456Z,60.93
2023-03-17T05:45:43.335Z,61.04
2023-03-17T05:46:43.993Z,60.52
2023-03-17T05:47:43.241Z,60.93
2023-03-17T05:48:43.221Z,60.83
2023-03-17T05:49:43.213Z,60.63
2023-03-17T05:50:43.378Z,60.83
2023-03-17T05:51:43.195Z,60.63
2023-03-17T05:52:43.181Z,60.63
2023-03-17T05:53:43.174Z,60.73
2023-03-17T05:54:43.153Z,60.31
2023-03-17T05:55:43.193Z,59.98
2023-03-17T05:56:43.131Z,60.29
2023-03-17T05:57:43.193Z,60.49
2023-03-17T05:58:43.103Z,60.19
2023-03-17T05:59:43.102Z,60.42
2023-03-17T06:00:43.069Z,60.31
2023-03-17T06:01:43.072Z,60.52
2023-03-17T06:02:43.109Z,60.83
2023-03-17T06:03:43.126Z,60.93
2023-03-17T06:04:43.015Z,61.24
2023-03-17T06:05:43.018Z,60.93
2023-03-17T06:06:42.994Z,61.04
2023-03-17T06:07:53.040Z,60.73
2023-03-17T06:08:43.961Z,60.83
2023-03-17T06:09:42.965Z,60.93
2023-03-17T06:10:42.940Z,60.73
2023-03-17T06:11:42.938Z,60.83
2023-03-17T06:12:42.931Z,60.73
2023-03-17T06:13:42.906Z,60.73
2023-03-17T06:14:42.911Z,60.73
2023-03-17T06:15:42.948Z,61.04
2023-03-17T06:16:42.889Z,60.93
2023-03-17T06:17:42.861Z,61.35
2023-03-17T06:18:42.859Z,61.24
2023-03-17T06:19:42.878Z,61.55
2023-03-17T06:20:42.812Z,61.14
2023-03-17T06:21:42.817Z,61.14
2023-03-17T06:23:00.508Z,61.04
2023-03-17T06:23:43.789Z,61.24
2023-03-17T06:24:42.769Z,61.24
2023-03-17T06:25:42.759Z,61.04
2023-03-17T06:26:42.740Z,60.93
2023-03-17T06:27:42.721Z,61.24
2023-03-17T06:28:42.885Z,61.14
2023-03-17T06:29:42.707Z,61.14
2023-03-17T06:30:42.677Z,61.55
2023-03-17T06:31:42.858Z,61.14
2023-03-17T06:32:42.690Z,61.35
2023-03-17T06:33:42.662Z,61.44
2023-03-17T06:34:42.635Z,61.35
2023-03-17T06:35:42.697Z,61.14
2023-03-17T06:36:42.784Z,61.24
2023-03-17T06:37:42.597Z,61.42
2023-03-17T06:38:42.575Z,61.11
2023-03-17T06:39:42.575Z,61.11
2023-03-17T06:40:42.563Z,61.32
2023-03-17T06:41:42.865Z,61.21
2023-03-17T06:42:42.527Z,61.11
2023-03-17T06:43:42.513Z,61.62
2023-03-17T06:44:42.510Z,61.42
2023-03-17T06:45:42.491Z,61.52
2023-03-17T06:46:42.554Z,61.42
2023-03-17T06:47:42.464Z,61.62
2023-03-17T06:48:42.458Z,61.42
2023-03-17T06:49:42.443Z,61.21
2023-03-17T06:50:42.423Z,61.42
2023-03-17T06:51:42.583Z,61.18
2023-03-17T06:52:42.411Z,60.98
2023-03-17T06:53:42.562Z,61.18
2023-03-17T06:54:42.381Z,60.77
2023-03-17T06:55:42.372Z,61.08
2023-03-17T06:56:42.358Z,60.88
2023-03-17T06:57:42.370Z,60.67
2023-03-17T06:58:42.521Z,60.67
2023-03-17T06:59:42.306Z,60.77
2023-03-17T07:00:42.302Z,61.05
2023-03-17T07:01:42.357Z,60.54
2023-03-17T07:02:42.332Z,60.64
2023-03-17T07:03:42.253Z,60.75
2023-03-17T07:04:42.474Z,60.75
2023-03-17T07:05:42.238Z,60.95
2023-03-17T07:06:42.221Z,60.54
2023-03-17T07:07:42.199Z,60.23
2023-03-17T07:08:42.203Z,60.33
2023-03-17T07:09:42.372Z,60.51
2023-03-17T07:10:42.186Z,59.59
2023-03-17T07:11:42.330Z,60.21
2023-03-17T07:12:42.159Z,59.59
2023-03-17T07:13:42.156Z,59.48
2023-03-17T07:14:42.305Z,59.25
2023-03-17T07:15:42.107Z,59.56
2023-03-17T07:16:42.320Z,59.05
2023-03-17T07:17:42.088Z,58.84
2023-03-17T07:18:42.064Z,58.72
2023-03-17T07:19:42.234Z,58.72
2023-03-17T07:20:42.046Z,58.51
2023-03-17T07:21:42.207Z,58.30
2023-03-17T07:22:42.008Z,58.51
2023-03-17T07:23:41.996Z,58.28
2023-03-17T07:24:42.166Z,58.48
2023-03-17T07:25:41.980Z,58.17
2023-03-17T07:26:41.967Z,58.28
2023-03-17T07:27:41.967Z,58.07
2023-03-17T07:28:41.955Z,58.28
2023-03-17T07:29:42.113Z,58.28
2023-03-17T07:30:41.935Z,58.04
2023-03-17T07:31:41.922Z,58.35
2023-03-17T07:32:41.963Z,57.53
2023-03-17T07:33:41.881Z,57.40
2023-03-17T07:34:42.044Z,57.51
2023-03-17T07:35:42.048Z,57.20
2023-03-17T07:36:41.830Z,57.40
2023-03-17T07:37:41.822Z,57.10
2023-03-17T07:38:41.804Z,57.38
2023-03-17T07:39:41.793Z,57.28
2023-03-17T07:40:42.110Z,56.56
2023-03-17T07:41:41.775Z,57.07
2023-03-17T07:42:42.598Z,56.76
2023-03-17T07:43:41.745Z,56.12
2023-03-17T07:44:41.731Z,56.12
2023-03-17T07:45:41.924Z,55.92
2023-03-17T07:46:41.702Z,56.02
2023-03-17T07:47:41.693Z,56.02
2023-03-17T07:48:41.706Z,55.92
2023-03-17T07:49:42.535Z,56.12
2023-03-17T07:50:41.861Z,55.38
2023-03-17T07:51:41.638Z,55.99
2023-03-17T07:52:41.643Z,55.38
2023-03-17T07:53:41.616Z,55.38
2023-03-17T07:54:43.125Z,55.79
2023-03-17T07:55:41.927Z,55.28
2023-03-17T07:56:41.573Z,55.66
2023-03-17T07:57:41.677Z,55.46
2023-03-17T07:58:41.572Z,55.46
2023-03-17T07:59:41.564Z,55.46
2023-03-17T08:00:41.702Z,55.66
2023-03-17T08:01:41.614Z,55.66
2023-03-17T08:02:41.725Z,55.05
2023-03-17T08:03:41.901Z,55.26
2023-03-17T08:04:41.477Z,55.43
2023-03-17T08:05:41.443Z,54.72
2023-03-17T08:06:41.443Z,55.02
2023-03-17T08:07:41.438Z,54.82
2023-03-17T08:08:41.429Z,54.72
2023-03-17T08:09:41.573Z,55.13
2023-03-17T08:10:41.402Z,54.61
2023-03-17T08:11:41.402Z,55.43
2023-03-17T08:12:41.363Z,54.51
2023-03-17T08:13:41.361Z,54.79
2023-03-17T08:14:41.529Z,54.72
2023-03-17T08:15:41.323Z,54.59
2023-03-17T08:16:41.394Z,54.79
2023-03-17T08:17:41.293Z,54.90
2023-03-17T08:18:41.338Z,54.79
2023-03-17T08:19:41.457Z,54.79
2023-03-17T08:20:41.299Z,54.79
2023-03-17T08:21:41.246Z,54.69
2023-03-17T08:22:41.272Z,54.79
2023-03-17T08:23:41.250Z,55.20
2023-03-17T08:24:41.224Z,54.90
2023-03-17T08:25:41.402Z,55.51
2023-03-17T08:26:41.182Z,54.79
2023-03-17T08:27:41.195Z,55.00
2023-03-17T08:28:41.172Z,54.69
2023-03-17T08:29:41.322Z,54.69
2023-03-17T08:30:41.584Z,54.39
2023-03-17T08:31:41.311Z,55.20
2023-03-17T08:32:41.173Z,54.77
2023-03-17T08:33:41.090Z,54.87
2023-03-17T08:34:41.071Z,55.07
2023-03-17T08:35:41.078Z,54.36
2023-03-17T08:36:41.324Z,55.18
2023-03-17T08:37:41.031Z,55.15
2023-03-17T08:38:41.031Z,55.76
2023-03-17T08:39:41.008Z,54.03
2023-03-17T08:40:41.030Z,54.82
2023-03-17T08:41:40.983Z,54.21
2023-03-17T08:42:41.155Z,54.41
2023-03-17T08:43:40.962Z,53.50
2023-03-17T08:44:42.892Z,53.29
2023-03-17T08:45:41.289Z,53.78
2023-03-17T08:46:40.925Z,54.39
2023-03-17T08:47:40.917Z,53.57
2023-03-17T08:48:40.903Z,53.06
2023-03-17T08:49:41.073Z,53.37
2023-03-17T08:50:40.882Z,53.57
2023-03-17T08:51:40.881Z,54.49
2023-03-17T08:52:40.890Z,53.47
2023-03-17T08:53:40.845Z,53.47
2023-03-17T08:54:41.000Z,54.28
2023-03-17T08:55:40.832Z,54.08
2023-03-17T08:56:40.799Z,53.27
2023-03-17T08:57:40.810Z,53.57
2023-03-17T08:58:40.779Z,53.27
2023-03-17T08:59:40.759Z,53.88
2023-03-17T09:00:40.937Z,53.37
2023-03-17T09:01:40.759Z,53.06
2023-03-17T09:02:40.763Z,53.16
2023-03-17T09:03:40.739Z,53.16
2023-03-17T09:04:40.714Z,53.57
2023-03-17T09:05:40.861Z,53.55
2023-03-17T09:06:48.939Z,53.04
2023-03-17T09:07:41.706Z,53.24
2023-03-17T09:08:40.837Z,53.34
2023-03-17T09:09:40.652Z,52.94
2023-03-17T09:10:42.555Z,53.44
2023-03-17T09:11:40.622Z,53.96
2023-03-17T09:12:40.605Z,52.43
2023-03-17T09:13:40.589Z,52.94
2023-03-17T09:14:44.299Z,53.55
2023-03-17T09:15:40.798Z,53.34
2023-03-17T09:16:40.560Z,53.11
2023-03-17T09:17:40.538Z,53.32
2023-03-17T09:18:40.528Z,53.02
2023-03-17T09:19:40.597Z,52.78
2023-03-17T09:20:40.682Z,52.78
2023-03-17T09:21:40.485Z,52.58
2023-03-17T09:22:40.476Z,52.17
2023-03-17T09:23:40.455Z,52.58
2023-03-17T09:24:40.453Z,52.05
2023-03-17T09:25:40.606Z,52.66
2023-03-17T09:26:40.435Z,52.35
2023-03-17T09:27:40.402Z,51.31
2023-03-17T09:28:40.403Z,52.23
2023-03-17T09:29:40.376Z,51.21
2023-03-17T09:30:40.551Z,51.70
2023-03-17T09:31:40.494Z,50.88
2023-03-17T09:32:40.389Z,50.78
2023-03-17T09:33:40.329Z,51.16
2023-03-17T09:34:40.343Z,50.56
2023-03-17T09:35:40.523Z,49.84
2023-03-17T09:36:40.291Z,50.76
2023-03-17T09:37:40.296Z,50.15
2023-03-17T09:38:40.263Z,50.23
2023-03-17T09:39:40.252Z,50.73
2023-03-17T09:40:40.232Z,50.84
2023-03-17T09:41:40.402Z,50.00
2023-03-17T09:42:40.221Z,49.59
2023-03-17T09:43:40.372Z,49.69
2023-03-17T09:44:40.191Z,49.80
2023-03-17T09:45:42.968Z,50.18
2023-03-17T09:46:40.228Z,49.39
2023-03-17T09:47:42.279Z,49.59
2023-03-17T09:48:40.149Z,49.37
2023-03-17T09:49:40.119Z,49.77
2023-03-17T09:50:40.105Z,50.05
2023-03-17T09:51:40.097Z,49.11
2023-03-17T09:52:40.258Z,49.52
2023-03-17T09:53:40.250Z,48.11
2023-03-17T09:54:40.232Z,48.49
2023-03-17T09:55:40.052Z,48.79
2023-03-17T09:56:40.053Z,48.18
2023-03-17T09:57:40.032Z,48.36
2023-03-17T09:58:40.019Z,47.83
2023-03-17T09:59:40.150Z,47.33
2023-03-17T10:00:39.979Z,47.20
2023-03-17T10:01:39.990Z,46.91
2023-03-17T10:02:40.009Z,46.91
2023-03-17T10:03:39.933Z,46.70
2023-03-17T10:04:40.099Z,46.91
2023-03-17T10:05:39.962Z,49.10
2023-03-17T10:06:39.889Z,47.69
2023-03-17T10:07:39.883Z,46.15
2023-03-17T10:08:39.859Z,46.15
2023-03-17T10:09:39.859Z,46.23
2023-03-17T10:10:40.018Z,46.13
2023-03-17T10:11:39.819Z,44.90
2023-03-17T10:12:39.808Z,46.31
2023-03-17T10:13:39.798Z,45.50
2023-03-17T10:14:39.787Z,43.87
2023-03-17T10:15:39.956Z,45.28
2023-03-17T10:16:39.950Z,44.09
2023-03-17T10:17:39.768Z,44.59
2023-03-17T10:18:39.738Z,44.70
2023-03-17T10:19:39.716Z,44.51
2023-03-17T10:20:39.917Z,45.73
2023-03-17T10:21:39.869Z,44.92
2023-03-17T10:22:39.692Z,44.82
2023-03-17T10:23:39.669Z,45.73
2023-03-17T10:24:39.657Z,45.34
2023-03-17T10:25:39.649Z,45.75
2023-03-17T10:26:39.826Z,45.95
2023-03-17T10:27:39.634Z,45.85
2023-03-17T10:28:39.602Z,45.65
2023-03-17T10:29:39.587Z,46.66
2023-03-17T10:30:39.909Z,46.56
2023-03-17T10:31:39.629Z,45.75
2023-03-17T10:32:39.615Z,46.45
2023-03-17T10:33:39.535Z,45.54
2023-03-17T10:34:39.530Z,46.68
2023-03-17T10:35:39.827Z,46.07
2023-03-17T10:36:39.676Z,46.37
2023-03-17T10:37:39.776Z,46.28
2023-03-17T10:38:39.477Z,46.68
2023-03-17T10:39:39.464Z,46.68
2023-03-17T10:40:39.454Z,45.57
2023-03-17T10:41:39.757Z,47.79
2023-03-17T10:42:39.426Z,47.26
2023-03-17T10:43:39.404Z,46.84
2023-03-17T10:44:39.418Z,46.81
2023-03-17T10:45:42.233Z,46.01
2023-03-17T10:46:39.610Z,45.38
2023-03-17T10:47:39.553Z,46.19
2023-03-17T10:48:39.355Z,46.09
2023-03-17T10:49:39.335Z,45.89
2023-03-17T10:50:39.332Z,46.97
2023-03-17T10:51:39.473Z,46.26
2023-03-17T10:52:39.485Z,45.64
2023-03-17T10:53:39.294Z,45.94
2023-03-17T10:54:39.276Z,44.75
2023-03-17T10:55:39.273Z,45.86
2023-03-17T10:56:39.258Z,44.67
2023-03-17T10:57:39.230Z,45.32
2023-03-17T10:58:39.493Z,46.05
2023-03-17T10:59:41.086Z,47.67
2023-03-17T11:00:39.276Z,46.86
2023-03-17T11:01:39.171Z,46.96
2023-03-17T11:02:39.172Z,46.36
2023-03-17T11:03:39.221Z,47.67
2023-03-17T11:04:39.344Z,47.04
2023-03-17T11:05:40.136Z,47.14
2023-03-17T11:06:39.213Z,45.81
2023-03-17T11:07:39.181Z,47.52
2023-03-17T11:08:39.177Z,46.19
2023-03-17T11:09:39.266Z,45.48
2023-03-17T11:10:39.075Z,45.38
2023-03-17T11:11:39.055Z,45.28
2023-03-17T11:12:39.044Z,45.78
2023-03-17T11:13:39.024Z,44.57
2023-03-17T11:14:39.200Z,45.28
2023-03-17T11:15:39.000Z,46.09
2023-03-17T11:16:39.030Z,45.78
2023-03-17T11:17:38.976Z,45.28
2023-03-17T11:18:38.970Z,45.18
2023-03-17T11:19:39.129Z,45.68
2023-03-17T11:20:38.958Z,45.48
2023-03-17T11:21:38.918Z,46.89
2023-03-17T11:22:38.916Z,47.90
2023-03-17T11:23:38.908Z,45.06
2023-03-17T11:24:39.056Z,45.97
2023-03-17T11:25:38.864Z,45.76
2023-03-17T11:26:39.050Z,44.63
2023-03-17T11:27:38.851Z,46.85
2023-03-17T11:28:38.860Z,45.21
2023-03-17T11:29:38.818Z,44.92
2023-03-17T11:30:38.828Z,43.79
2023-03-17T11:31:39.128Z,44.29
2023-03-17T11:32:39.201Z,44.97
2023-03-17T11:33:38.764Z,44.77
2023-03-17T11:34:38.765Z,43.68
2023-03-17T11:35:38.793Z,44.61
2023-03-17T11:36:38.746Z,44.11
2023-03-17T11:37:38.887Z,44.53
2023-03-17T11:38:38.704Z,45.12
2023-03-17T11:39:38.684Z,45.32
2023-03-17T11:40:38.701Z,45.59
2023-03-17T11:41:38.663Z,44.67
2023-03-17T11:42:38.854Z,44.35
2023-03-17T11:43:38.634Z,42.44
2023-03-17T11:44:38.637Z,42.86
2023-03-17T11:45:38.635Z,42.96
2023-03-17T11:46:38.607Z,43.64
2023-03-17T11:47:38.764Z,43.24
2023-03-17T11:48:38.584Z,44.55
2023-03-17T11:49:38.575Z,43.54
2023-03-17T11:50:38.562Z,44.32
2023-03-17T11:51:38.535Z,43.72
2023-03-17T11:52:38.703Z,43.62
2023-03-17T11:53:38.702Z,43.80
2023-03-17T11:54:38.570Z,42.90
2023-03-17T11:55:38.488Z,42.90
2023-03-17T11:56:38.472Z,42.40
2023-03-17T11:57:38.462Z,43.20
2023-03-17T11:58:38.805Z,43.00
2023-03-17T11:59:38.421Z,43.00
2023-03-17T12:00:38.422Z,42.80
2023-03-17T12:01:38.398Z,42.30
2023-03-17T12:02:38.408Z,42.69
2023-03-17T12:03:38.499Z,42.82
2023-03-17T12:04:38.629Z,44.12
2023-03-17T12:05:38.354Z,43.32
2023-03-17T12:06:38.339Z,44.02
2023-03-17T12:07:38.331Z,43.22
2023-03-17T12:08:38.317Z,42.92
2023-03-17T12:09:38.304Z,43.52
2023-03-17T12:10:38.287Z,43.42
2023-03-17T12:11:38.267Z,43.02
2023-03-17T12:12:38.266Z,42.72
2023-03-17T12:13:38.424Z,43.54
2023-03-17T12:14:38.251Z,43.76
2023-03-17T12:15:38.456Z,44.77
2023-03-17T12:16:38.227Z,44.35
2023-03-17T12:17:38.201Z,43.54
2023-03-17T12:18:38.185Z,43.34
2023-03-17T12:19:38.163Z,42.64
2023-03-17T12:20:38.343Z,43.56
2023-03-17T12:21:38.148Z,43.66
2023-03-17T12:22:38.134Z,43.76
2023-03-17T12:23:38.124Z,43.76
2023-03-17T12:24:38.105Z,45.47
2023-03-17T12:25:38.255Z,44.27
2023-03-17T12:26:38.077Z,44.17
2023-03-17T12:27:38.097Z,44.27
2023-03-17T12:28:38.060Z,44.77
2023-03-17T12:29:38.042Z,44.17
2023-03-17T12:30:38.202Z,44.77
2023-03-17T12:31:38.011Z,45.07
2023-03-17T12:32:38.048Z,44.37
2023-03-17T12:33:38.001Z,46.38
2023-03-17T12:34:37.979Z,45.35
2023-03-17T12:35:38.166Z,44.55
2023-03-17T12:36:37.951Z,43.74
2023-03-17T12:37:37.943Z,44.45
2023-03-17T12:38:37.937Z,45.35
2023-03-17T12:39:37.911Z,44.24
2023-03-17T12:40:37.893Z,43.87
2023-03-17T12:41:38.066Z,43.66
2023-03-17T12:42:37.860Z,44.77
2023-03-17T12:43:37.864Z,46.28
2023-03-17T12:44:37.842Z,45.17
2023-03-17T12:45:37.832Z,44.09
2023-03-17T12:46:38.071Z,44.29
2023-03-17T12:47:37.824Z,43.79
2023-03-17T12:48:37.790Z,44.39
2023-03-17T12:49:37.802Z,44.29
2023-03-17T12:50:37.774Z,45.62
2023-03-17T12:51:38.628Z,44.09
2023-03-17T12:52:37.911Z,44.79